createdAt,value
2022-11-17T00:01:10.927Z,12.87
2022-11-17T00:03:40.290Z,15.17
2022-11-17T00:06:06.894Z,12.67
2022-11-17T00:08:33.163Z,13.80
2022-11-17T00:11:02.748Z,12.27
2022-11-17T00:13:47.959Z,13.50
2022-11-17T00:16:15.015Z,13.20
2022-11-17T00:18:59.917Z,12.67
2022-11-17T00:21:28.691Z,13.03
2022-11-17T00:23:55.595Z,15.43
2022-11-17T00:26:23.326Z,13.97
2022-11-17T00:28:56.340Z,15.97
2022-11-17T00:31:41.692Z,15.27
2022-11-17T00:34:08.299Z,18.13
2022-11-17T00:36:36.851Z,15.10
2022-11-17T00:39:03.471Z,12.93
2022-11-17T00:41:29.780Z,14.93
2022-11-17T00:43:56.056Z,15.57
2022-11-17T00:46:22.624Z,16.27
2022-11-17T00:48:48.901Z,13.30
2022-11-17T00:51:15.155Z,16.07
2022-11-17T00:53:41.469Z,15.17
2022-11-17T00:56:07.699Z,19.50
2022-11-17T00:58:35.436Z,16.20
2022-11-17T01:01:01.979Z,14.93
2022-11-17T01:03:28.447Z,14.33
2022-11-17T01:05:54.665Z,17.60
2022-11-17T01:08:22.059Z,16.47
2022-11-17T01:10:48.343Z,15.10
2022-11-17T01:13:16.897Z,14.20
2022-11-17T01:15:43.119Z,13.93
2022-11-17T01:18:12.641Z,17.37
2022-11-17T01:20:38.928Z,15.23
2022-11-17T01:23:05.152Z,16.37
2022-11-17T01:25:31.399Z,14.80
2022-11-17T01:27:57.627Z,14.60
2022-11-17T01:30:23.866Z,16.10
2022-11-17T01:32:50.111Z,14.97
2022-11-17T01:35:16.424Z,13.47
2022-11-17T01:37:42.721Z,13.90
2022-11-17T01:40:11.957Z,12.77
2022-11-17T01:42:38.183Z,12.37
2022-11-17T01:45:16.581Z,13.97
2022-11-17T01:47:46.032Z,15.13
2022-11-17T01:50:27.279Z,14.70
2022-11-17T01:52:55.347Z,16.47
2022-11-17T01:55:24.263Z,13.17
2022-11-17T01:57:53.899Z,11.73
2022-11-17T02:00:20.145Z,15.97
2022-11-17T02:02:47.717Z,13.00
2022-11-17T02:05:19.822Z,13.40
2022-11-17T02:07:46.345Z,11.40
2022-11-17T02:10:12.633Z,13.07
2022-11-17T02:12:38.864Z,12.90
2022-11-17T02:15:05.629Z,14.87
2022-11-17T02:17:35.942Z,13.97
2022-11-17T02:20:13.264Z,13.60
2022-11-17T02:22:48.234Z,13.20
2022-11-17T02:25:32.995Z,11.97
2022-11-17T02:28:11.513Z,13.87
2022-11-17T02:30:43.772Z,14.53
2022-11-17T02:33:18.190Z,11.10
2022-11-17T02:35:51.422Z,13.50
2022-11-17T02:38:28.229Z,10.63
2022-11-17T02:41:10.637Z,12.43
2022-11-17T02:44:00.534Z,10.60
2022-11-17T02:46:28.591Z,13.27
2022-11-17T02:48:58.175Z,12.77
2022-11-17T02:51:24.670Z,11.20
2022-11-17T02:53:52.477Z,12.33
2022-11-17T02:56:18.719Z,12.57
2022-11-17T02:58:46.062Z,15.80
2022-11-17T03:01:22.639Z,11.73
2022-11-17T03:04:09.207Z,13.23
2022-11-17T03:06:45.646Z,12.43
2022-11-17T03:09:21.084Z,13.73
2022-11-17T03:11:49.720Z,14.00
2022-11-17T03:14:29.753Z,13.77
2022-11-17T03:16:59.236Z,13.27
2022-11-17T03:19:44.074Z,12.60
2022-11-17T03:22:33.270Z,12.97
2022-11-17T03:25:02.489Z,13.20
2022-11-17T03:27:31.305Z,10.93
2022-11-17T03:30:00.420Z,12.30
2022-11-17T03:32:28.066Z,13.20
2022-11-17T03:34:59.362Z,12.63
2022-11-17T03:37:27.983Z,14.13
2022-11-17T03:39:57.349Z,12.23
2022-11-17T03:42:25.790Z,11.70
2022-11-17T03:44:56.751Z,13.20
2022-11-17T03:47:25.151Z,13.07
2022-11-17T03:49:54.669Z,12.43
2022-11-17T03:52:21.559Z,11.63
2022-11-17T03:54:48.089Z,13.60
2022-11-17T03:57:17.124Z,13.83
2022-11-17T03:59:57.939Z,14.20
2022-11-17T04:02:24.963Z,12.23
2022-11-17T04:05:06.235Z,14.17
2022-11-17T04:07:36.714Z,14.77
2022-11-17T04:10:03.734Z,13.07
2022-11-17T04:12:48.802Z,14.40
2022-11-17T04:15:33.504Z,13.60
2022-11-17T04:17:59.803Z,14.27
2022-11-17T04:20:26.158Z,13.70
2022-11-17T04:23:07.502Z,13.00
2022-11-17T04:25:53.090Z,13.97
2022-11-17T04:28:37.911Z,12.17
2022-11-17T04:31:04.180Z,14.33
2022-11-17T04:33:30.478Z,13.17
2022-11-17T04:35:57.118Z,14.90
2022-11-17T04:38:23.337Z,14.87
2022-11-17T04:41:27.958Z,14.43
2022-11-17T04:43:54.603Z,15.93
2022-11-17T04:46:21.330Z,16.83
2022-11-17T04:48:47.809Z,14.23
2022-11-17T04:51:15.039Z,15.03
2022-11-17T04:53:41.426Z,13.93
2022-11-17T04:56:08.016Z,15.13
2022-11-17T04:58:34.591Z,15.40
2022-11-17T05:01:12.230Z,14.63
2022-11-17T05:03:41.388Z,15.37
2022-11-17T05:06:08.167Z,15.20
2022-11-17T05:08:38.426Z,14.20
2022-11-17T05:11:23.745Z,16.73
2022-11-17T05:13:50.275Z,14.23
2022-11-17T05:16:35.253Z,18.37
2022-11-17T05:19:01.527Z,16.43
2022-11-17T05:21:28.098Z,17.30
2022-11-17T05:23:54.337Z,17.23
2022-11-17T05:26:21.861Z,16.13
2022-11-17T05:28:48.126Z,15.67
2022-11-17T05:31:14.480Z,18.03
2022-11-17T05:33:41.182Z,16.53
2022-11-17T05:36:07.998Z,15.13
2022-11-17T05:38:34.215Z,15.87
2022-11-17T05:41:00.726Z,16.87
2022-11-17T05:43:27.354Z,15.60
2022-11-17T05:45:53.597Z,14.93
2022-11-17T05:48:20.516Z,17.40
2022-11-17T05:50:46.827Z,14.63
2022-11-17T05:53:13.242Z,16.30
2022-11-17T05:55:39.473Z,17.43
2022-11-17T05:58:10.350Z,20.50
2022-11-17T06:00:39.368Z,20.57
2022-11-17T06:03:07.475Z,16.80
2022-11-17T06:05:33.811Z,18.97
2022-11-17T06:08:00.049Z,17.67
2022-11-17T06:10:26.756Z,16.00
2022-11-17T06:12:52.994Z,18.20
2022-11-17T06:15:19.322Z,15.27
2022-11-17T06:17:51.318Z,16.40
2022-11-17T06:20:22.521Z,16.50
2022-11-17T06:22:49.949Z,18.07
2022-11-17T06:25:18.012Z,14.93
2022-11-17T06:27:44.499Z,18.30
2022-11-17T06:30:11.148Z,16.33
2022-11-17T06:32:38.694Z,17.43
2022-11-17T06:35:07.073Z,17.57
2022-11-17T06:37:33.297Z,18.00
2022-11-17T06:39:59.581Z,16.07
2022-11-17T06:42:44.517Z,15.57
2022-11-17T06:45:11.360Z,15.63
2022-11-17T06:47:37.647Z,17.97
2022-11-17T06:50:04.475Z,17.77
2022-11-17T06:52:30.708Z,15.00
2022-11-17T06:54:56.929Z,15.13
2022-11-17T06:57:23.154Z,13.53
2022-11-17T06:59:49.423Z,16.47
2022-11-17T07:02:15.663Z,15.53
2022-11-17T07:04:42.300Z,17.10
2022-11-17T07:07:08.631Z,15.70
2022-11-17T07:09:34.910Z,16.60
2022-11-17T07:12:01.134Z,17.47
2022-11-17T07:14:27.339Z,14.60
2022-11-17T07:16:53.560Z,14.03
2022-11-17T07:19:19.785Z,17.23
2022-11-17T07:21:46.017Z,16.00
2022-11-17T07:24:12.297Z,16.03
2022-11-17T07:26:38.663Z,17.07
2022-11-17T07:29:04.929Z,14.70
2022-11-17T07:31:31.190Z,12.90
2022-11-17T07:33:57.605Z,15.27
2022-11-17T07:36:23.869Z,15.70
2022-11-17T07:38:50.096Z,13.90
2022-11-17T07:41:16.320Z,12.77
2022-11-17T07:43:42.562Z,13.70
2022-11-17T07:46:11.195Z,17.87
2022-11-17T07:48:37.868Z,14.33
2022-11-17T07:51:05.010Z,14.03
2022-11-17T07:53:32.421Z,13.67
2022-11-17T07:56:04.649Z,15.20
2022-11-17T07:58:31.120Z,16.47
2022-11-17T08:00:57.384Z,13.33
2022-11-17T08:03:24.289Z,13.37
2022-11-17T08:05:51.491Z,16.43
2022-11-17T08:08:17.741Z,13.53
2022-11-17T08:10:44.034Z,14.83
2022-11-17T08:13:11.301Z,15.23
2022-11-17T08:15:37.536Z,15.27
2022-11-17T08:18:03.854Z,18.40
2022-11-17T08:20:30.085Z,16.03
2022-11-17T08:22:56.597Z,15.70
2022-11-17T08:25:23.806Z,14.80
2022-11-17T08:27:52.071Z,15.00
2022-11-17T08:30:19.400Z,14.50
2022-11-17T08:32:49.775Z,14.20
2022-11-17T08:35:20.586Z,14.47
2022-11-17T08:37:46.815Z,12.63
2022-11-17T08:40:13.712Z,12.23
2022-11-17T08:42:39.992Z,15.87
2022-11-17T08:45:06.863Z,16.87
2022-11-17T08:47:33.089Z,13.47
2022-11-17T08:49:59.313Z,13.40
2022-11-17T08:52:27.260Z,15.83
2022-11-17T08:54:53.508Z,13.83
2022-11-17T08:57:21.933Z,15.53
2022-11-17T08:59:48.420Z,17.07
2022-11-17T09:02:14.679Z,15.60
2022-11-17T09:04:40.930Z,15.03
2022-11-17T09:07:07.181Z,13.20
2022-11-17T09:09:33.506Z,16.33
2022-11-17T09:12:01.089Z,15.87
2022-11-17T09:14:27.316Z,14.77
2022-11-17T09:16:53.753Z,18.37
2022-11-17T09:19:19.967Z,15.97
2022-11-17T09:21:46.200Z,16.57
2022-11-17T09:24:12.422Z,18.93
2022-11-17T09:26:40.879Z,20.43
2022-11-17T09:29:07.878Z,15.13
2022-11-17T09:31:34.782Z,18.00
2022-11-17T09:34:05.289Z,16.40
2022-11-17T09:36:32.247Z,16.33
2022-11-17T09:38:58.466Z,17.47
2022-11-17T09:41:24.672Z,20.17
2022-11-17T09:43:54.590Z,17.43
2022-11-17T09:46:28.450Z,20.73
2022-11-17T09:49:01.519Z,19.20
2022-11-17T09:51:30.391Z,17.30
2022-11-17T09:54:01.549Z,20.17
2022-11-17T09:56:27.853Z,19.33
2022-11-17T09:58:58.789Z,22.70
2022-11-17T10:01:27.250Z,22.60
2022-11-17T10:03:55.044Z,20.07
2022-11-17T10:06:22.362Z,19.70
2022-11-17T10:08:58.489Z,20.10
2022-11-17T10:11:34.111Z,21.40
2022-11-17T10:14:15.916Z,22.13
2022-11-17T10:16:43.883Z,21.63
2022-11-17T10:19:14.939Z,24.93
2022-11-17T10:21:41.183Z,21.40
2022-11-17T10:24:07.524Z,20.63
2022-11-17T10:26:49.248Z,21.63
2022-11-17T10:29:21.465Z,21.83
2022-11-17T10:31:47.717Z,23.27
2022-11-17T10:34:37.003Z,19.10
2022-11-17T10:37:22.868Z,20.77
2022-11-17T10:39:49.147Z,22.97
2022-11-17T10:42:21.154Z,21.17
2022-11-17T10:44:51.317Z,23.37
2022-11-17T10:47:28.528Z,19.67
2022-11-17T10:50:13.689Z,20.40
2022-11-17T10:52:40.082Z,18.07
2022-11-17T10:55:19.139Z,22.60
2022-11-17T10:57:48.470Z,21.03
2022-11-17T11:00:22.893Z,17.70
2022-11-17T11:02:50.326Z,24.40
2022-11-17T11:05:18.414Z,16.97
2022-11-17T11:07:47.052Z,19.27
2022-11-17T11:10:16.256Z,21.47
2022-11-17T11:12:49.945Z,20.53
2022-11-17T11:15:19.976Z,17.67
2022-11-17T11:17:46.269Z,21.17
2022-11-17T11:20:16.424Z,18.43
2022-11-17T11:22:57.308Z,19.53
2022-11-17T11:25:26.636Z,19.27
2022-11-17T11:28:00.507Z,19.53
2022-11-17T11:30:26.823Z,17.87
2022-11-17T11:32:59.217Z,18.40
2022-11-17T11:35:44.131Z,18.70
2022-11-17T11:38:28.932Z,16.43
2022-11-17T11:41:20.678Z,16.27
2022-11-17T11:43:55.132Z,19.20
2022-11-17T11:46:32.062Z,16.83
2022-11-17T11:49:04.593Z,17.43
2022-11-17T11:51:34.872Z,17.13
2022-11-17T11:54:04.019Z,16.17
2022-11-17T11:56:38.560Z,17.03
2022-11-17T11:59:21.985Z,16.97
2022-11-17T12:01:53.106Z,17.57
2022-11-17T12:04:33.633Z,16.67
2022-11-17T12:07:05.726Z,17.30
2022-11-17T12:09:43.889Z,16.47
2022-11-17T12:12:15.213Z,17.70
2022-11-17T12:15:01.650Z,16.20
2022-11-17T12:17:27.950Z,16.67
2022-11-17T12:19:54.227Z,15.10
2022-11-17T12:22:25.114Z,17.50
2022-11-17T12:24:56.208Z,16.03
2022-11-17T12:27:34.380Z,17.97
2022-11-17T12:30:05.531Z,14.30
2022-11-17T12:32:51.503Z,17.20
2022-11-17T12:35:26.702Z,16.23
2022-11-17T12:38:12.273Z,16.03
2022-11-17T12:40:38.562Z,17.40
2022-11-17T12:43:17.116Z,14.90
2022-11-17T12:45:53.054Z,15.60
2022-11-17T12:48:33.869Z,13.77
2022-11-17T12:51:08.322Z,15.20
2022-11-17T12:53:53.246Z,15.77
2022-11-17T12:56:31.860Z,17.47
2022-11-17T12:59:18.730Z,15.67
2022-11-17T13:02:03.647Z,14.77
2022-11-17T13:04:29.863Z,18.47
2022-11-17T13:07:01.122Z,20.40
2022-11-17T13:09:28.873Z,16.77
2022-11-17T13:11:59.085Z,14.33
2022-11-17T13:14:25.313Z,18.47
2022-11-17T13:16:51.791Z,16.10
2022-11-17T13:19:34.892Z,16.33
2022-11-17T13:22:03.911Z,15.27
2022-11-17T13:24:32.059Z,14.97
2022-11-17T13:26:59.443Z,14.77
2022-11-17T13:29:25.679Z,15.37
2022-11-17T13:32:05.387Z,15.07
2022-11-17T13:34:31.828Z,13.40
2022-11-17T13:36:59.138Z,14.20
2022-11-17T13:39:29.053Z,18.97
2022-11-17T13:42:00.907Z,13.57
2022-11-17T13:44:27.726Z,15.67
2022-11-17T13:46:53.959Z,15.70
2022-11-17T13:49:49.642Z,16.17
2022-11-17T13:52:40.437Z,15.67
2022-11-17T13:55:14.739Z,15.50
2022-11-17T13:57:52.449Z,14.10
2022-11-17T14:00:18.805Z,14.60
2022-11-17T14:02:51.835Z,16.30
2022-11-17T14:05:18.350Z,15.67
2022-11-17T14:07:44.996Z,16.67
2022-11-17T14:10:12.950Z,15.77
2022-11-17T14:12:39.241Z,13.60
2022-11-17T14:15:20.834Z,16.73
2022-11-17T14:17:54.335Z,15.93
2022-11-17T14:20:23.373Z,15.00
2022-11-17T14:23:00.814Z,15.43
2022-11-17T14:25:27.457Z,17.83
2022-11-17T14:27:53.693Z,14.70
2022-11-17T14:30:19.940Z,15.90
2022-11-17T14:32:46.241Z,16.37
2022-11-17T14:35:13.353Z,14.10
2022-11-17T14:37:39.914Z,15.60
2022-11-17T14:40:07.735Z,15.57
2022-11-17T14:42:36.329Z,14.47
2022-11-17T14:45:02.927Z,16.20
2022-11-17T14:47:29.140Z,16.27
2022-11-17T14:49:56.782Z,14.07
2022-11-17T14:52:23.023Z,14.07
2022-11-17T14:54:49.253Z,15.77
2022-11-17T14:57:15.487Z,13.77
2022-11-17T14:59:41.774Z,16.50
2022-11-17T15:02:09.187Z,14.13
2022-11-17T15:04:49.887Z,16.10
2022-11-17T15:07:17.546Z,16.77
2022-11-17T15:09:43.789Z,20.47
2022-11-17T15:12:10.053Z,16.13
2022-11-17T15:14:36.319Z,14.87
2022-11-17T15:17:02.799Z,13.90
2022-11-17T15:19:29.045Z,17.13
2022-11-17T15:21:55.260Z,16.00
2022-11-17T15:24:21.562Z,16.13
2022-11-17T15:26:47.818Z,13.80
2022-11-17T15:29:17.514Z,16.97
2022-11-17T15:31:44.453Z,15.80
2022-11-17T15:34:13.340Z,15.60
2022-11-17T15:36:43.280Z,16.00
2022-11-17T15:39:11.310Z,19.03
2022-11-17T15:41:37.540Z,16.80
2022-11-17T15:44:03.819Z,17.40
2022-11-17T15:46:30.036Z,17.93
2022-11-17T15:48:56.572Z,15.87
2022-11-17T15:51:24.189Z,17.30
2022-11-17T15:53:51.331Z,17.17
2022-11-17T15:56:21.326Z,17.40
2022-11-17T15:58:48.269Z,17.10
2022-11-17T16:01:23.822Z,18.73
2022-11-17T16:03:50.551Z,20.73
2022-11-17T16:06:16.990Z,17.67
2022-11-17T16:08:43.238Z,19.00
2022-11-17T16:11:10.261Z,19.10
2022-11-17T16:13:36.552Z,19.23
2022-11-17T16:16:03.316Z,20.27
2022-11-17T16:18:29.773Z,20.70
2022-11-17T16:21:04.389Z,19.63
2022-11-17T16:23:31.247Z,18.90
2022-11-17T16:25:57.990Z,19.53
2022-11-17T16:28:24.270Z,19.80
2022-11-17T16:30:50.474Z,18.13
2022-11-17T16:33:16.782Z,21.30
2022-11-17T16:35:43.422Z,20.40
2022-11-17T16:38:13.385Z,19.10
2022-11-17T16:40:39.943Z,20.37
2022-11-17T16:43:06.339Z,19.07
2022-11-17T16:45:40.911Z,20.27
2022-11-17T16:48:08.410Z,20.87
2022-11-17T16:50:38.578Z,19.87
2022-11-17T16:53:04.805Z,18.57
2022-11-17T16:55:38.381Z,18.70
2022-11-17T16:58:06.382Z,20.80
2022-11-17T17:00:33.371Z,19.83
2022-11-17T17:02:59.690Z,19.47
2022-11-17T17:05:26.158Z,18.67
2022-11-17T17:07:52.389Z,18.13
2022-11-17T17:10:18.639Z,18.03
2022-11-17T17:12:44.855Z,19.17
2022-11-17T17:15:11.254Z,17.97
2022-11-17T17:17:38.344Z,18.70
2022-11-17T17:20:04.798Z,18.83
2022-11-17T17:22:31.010Z,18.53
2022-11-17T17:24:57.267Z,16.73
2022-11-17T17:27:24.203Z,18.20
2022-11-17T17:29:50.729Z,18.77
2022-11-17T17:32:16.935Z,17.17
2022-11-17T17:34:43.205Z,18.40
2022-11-17T17:37:09.421Z,18.77
2022-11-17T17:39:35.641Z,18.73
2022-11-17T17:42:01.863Z,18.90
2022-11-17T17:44:28.100Z,19.57
2022-11-17T17:46:54.345Z,19.73
2022-11-17T17:49:20.580Z,20.23
2022-11-17T17:51:47.399Z,20.57
2022-11-17T17:54:20.735Z,18.70
2022-11-17T17:56:50.550Z,20.80
2022-11-17T17:59:17.360Z,19.33
2022-11-17T18:01:48.707Z,20.53
2022-11-17T18:04:16.743Z,20.63
2022-11-17T18:06:45.897Z,23.20
2022-11-17T18:09:14.476Z,20.73
2022-11-17T18:11:45.766Z,21.60
2022-11-17T18:14:12.994Z,21.70
2022-11-17T18:16:39.323Z,24.13
2022-11-17T18:19:07.234Z,24.20
2022-11-17T18:21:33.705Z,24.33
2022-11-17T18:24:01.164Z,23.27
2022-11-17T18:26:29.143Z,24.93
2022-11-17T18:28:55.355Z,22.93
2022-11-17T18:31:22.431Z,24.90
2022-11-17T18:33:52.378Z,25.23
2022-11-17T18:36:18.875Z,22.83
2022-11-17T18:38:45.293Z,22.47
2022-11-17T18:41:12.614Z,22.33
2022-11-17T18:43:39.111Z,23.47
2022-11-17T18:46:13.174Z,23.67
2022-11-17T18:48:40.318Z,25.43
2022-11-17T18:51:22.586Z,27.00
2022-11-17T18:53:49.475Z,24.87
2022-11-17T18:56:16.790Z,23.70
2022-11-17T18:58:43.292Z,24.27
2022-11-17T19:01:17.076Z,24.90
2022-11-17T19:03:44.618Z,23.63
2022-11-17T19:06:11.395Z,25.40
2022-11-17T19:08:37.829Z,21.13
2022-11-17T19:11:06.362Z,23.63
2022-11-17T19:13:33.616Z,24.30
2022-11-17T19:16:05.849Z,26.00
2022-11-17T19:18:32.105Z,22.80
2022-11-17T19:21:09.082Z,24.33
2022-11-17T19:23:36.203Z,23.27
2022-11-17T19:26:03.995Z,24.43
2022-11-17T19:28:31.140Z,24.23
2022-11-17T19:31:01.915Z,25.30
2022-11-17T19:33:31.702Z,25.77
2022-11-17T19:36:02.126Z,24.47
2022-11-17T19:38:28.643Z,24.47
2022-11-17T19:40:54.948Z,24.00
2022-11-17T19:43:21.835Z,24.40
2022-11-17T19:45:48.388Z,25.37
2022-11-17T19:48:15.201Z,25.37
2022-11-17T19:50:41.448Z,24.67
2022-11-17T19:53:07.663Z,26.57
2022-11-17T19:55:34.740Z,27.70
2022-11-17T19:58:01.039Z,25.33
2022-11-17T20:00:27.269Z,24.67
2022-11-17T20:02:53.472Z,24.93
2022-11-17T20:05:19.746Z,23.17
2022-11-17T20:07:45.953Z,26.30
2022-11-17T20:10:12.288Z,23.17
2022-11-17T20:12:38.517Z,27.67
2022-11-17T20:15:04.916Z,27.63
2022-11-17T20:17:31.111Z,27.30
2022-11-17T20:19:57.330Z,26.60
2022-11-17T20:22:23.533Z,24.37
2022-11-17T20:24:49.794Z,24.70
2022-11-17T20:27:16.092Z,26.13
2022-11-17T20:29:42.887Z,27.33
2022-11-17T20:32:09.096Z,25.87
2022-11-17T20:34:35.370Z,24.83
2022-11-17T20:37:01.599Z,26.67
2022-11-17T20:39:27.860Z,30.90
2022-11-17T20:41:54.096Z,26.27
2022-11-17T20:44:26.496Z,28.77
2022-11-17T20:46:54.791Z,24.20
2022-11-17T20:49:24.251Z,26.73
2022-11-17T20:51:50.586Z,26.67
2022-11-17T20:54:16.855Z,28.97
2022-11-17T20:56:43.105Z,27.03
2022-11-17T20:59:09.459Z,26.93
2022-11-17T21:01:35.845Z,26.40
2022-11-17T21:04:02.280Z,28.77
2022-11-17T21:06:29.530Z,29.97
2022-11-17T21:08:55.763Z,27.70
2022-11-17T21:11:41.819Z,28.97
2022-11-17T21:14:09.114Z,27.47
2022-11-17T21:16:36.946Z,32.50
2022-11-17T21:19:03.586Z,29.27
2022-11-17T21:21:29.836Z,27.43
2022-11-17T21:23:56.172Z,32.13
2022-11-17T21:26:25.453Z,29.47
2022-11-17T21:28:52.187Z,28.43
2022-11-17T21:31:19.804Z,26.70
2022-11-17T21:33:46.177Z,24.60
2022-11-17T21:36:16.370Z,26.77
2022-11-17T21:38:43.238Z,25.90
2022-11-17T21:41:12.534Z,26.57
2022-11-17T21:43:39.574Z,26.67
2022-11-17T21:46:09.668Z,27.90
2022-11-17T21:48:37.221Z,26.60
2022-11-17T21:51:04.004Z,30.47
2022-11-17T21:53:30.433Z,26.10
2022-11-17T21:56:00.259Z,28.97
2022-11-17T21:58:26.510Z,30.80
2022-11-17T22:00:52.770Z,28.60
2022-11-17T22:03:19.061Z,25.47
2022-11-17T22:05:45.402Z,27.07
2022-11-17T22:08:11.629Z,27.13
2022-11-17T22:10:37.870Z,31.30
2022-11-17T22:13:08.004Z,26.43
2022-11-17T22:15:35.427Z,28.23
2022-11-17T22:18:01.981Z,28.70
2022-11-17T22:20:28.456Z,30.40
2022-11-17T22:22:56.171Z,27.17
2022-11-17T22:25:44.122Z,28.20
2022-11-17T22:28:08.667Z,28.80
2022-11-17T22:30:37.903Z,25.37
2022-11-17T22:33:04.490Z,26.80
2022-11-17T22:35:30.942Z,27.57
2022-11-17T22:37:57.149Z,27.87
2022-11-17T22:40:23.383Z,29.83
2022-11-17T22:42:52.145Z,27.73
2022-11-17T22:45:18.378Z,28.90
2022-11-17T22:47:46.132Z,26.47
2022-11-17T22:50:12.363Z,29.43
2022-11-17T22:52:38.566Z,28.60
2022-11-17T22:55:05.122Z,28.47
2022-11-17T22:57:31.333Z,26.20
2022-11-17T22:59:57.559Z,27.43
2022-11-17T23:02:23.811Z,26.93
2022-11-17T23:04:50.121Z,28.07
2022-11-17T23:07:16.393Z,26.47
2022-11-17T23:09:42.676Z,28.37
2022-11-17T23:12:08.901Z,29.10
2022-11-17T23:14:35.133Z,28.17
2022-11-17T23:17:01.337Z,26.43
2022-11-17T23:19:27.600Z,29.53
2022-11-17T23:21:55.946Z,27.17
2022-11-17T23:24:22.238Z,29.73
2022-11-17T23:26:48.474Z,26.97
2022-11-17T23:29:14.988Z,29.07
2022-11-17T23:31:41.420Z,27.13
2022-11-17T23:34:11.861Z,29.43
2022-11-17T23:36:38.856Z,29.43
2022-11-17T23:39:05.057Z,29.20
2022-11-17T23:41:31.299Z,30.90
2022-11-17T23:43:57.521Z,31.03
2022-11-17T23:46:24.721Z,33.67
2022-11-17T23:48:51.161Z,31.90
2022-11-17T23:51:21.173Z,31.00
2022-11-17T23:53:47.478Z,31.07
2022-11-17T23:56:13.809Z,29.43
2022-11-17T23:58:40.051Z,32.47
